sensor_id;sensor_type;location;lat;lon;timestamp;pressure;altitude;pressure_sealevel;temperature;humidity
68107;BME280;54892;47.488;19.026;2023-05-12T00:03:01;100050.13;;;12.47;81.77
68107;BME280;54892;47.488;19.026;2023-05-12T00:06:06;100050.94;;;12.47;82.37
68107;BME280;54892;47.488;19.026;2023-05-12T00:09:10;100045.38;;;12.39;83.43
68107;BME280;54892;47.488;19.026;2023-05-12T00:12:13;100042.97;;;12.42;83.52
68107;BME280;54892;47.488;19.026;2023-05-12T00:15:17;100043.00;;;12.53;83.61
68107;BME280;54892;47.488;19.026;2023-05-12T00:18:20;100045.88;;;12.51;83.64
68107;BME280;54892;47.488;19.026;2023-05-12T00:21:25;100045.91;;;12.36;84.08
68107;BME280;54892;47.488;19.026;2023-05-12T00:24:29;100046.16;;;12.44;84.51
68107;BME280;54892;47.488;19.026;2023-05-12T00:27:32;100043.78;;;12.43;83.68
68107;BME280;54892;47.488;19.026;2023-05-12T00:30:36;100038.22;;;12.49;83.57
68107;BME280;54892;47.488;19.026;2023-05-12T00:33:39;100038.75;;;12.41;83.85
68107;BME280;54892;47.488;19.026;2023-05-12T00:36:44;100031.34;;;12.43;83.94
68107;BME280;54892;47.488;19.026;2023-05-12T00:39:47;100036.91;;;12.37;84.22
68107;BME280;54892;47.488;19.026;2023-05-12T00:42:51;100026.84;;;12.44;84.53
68107;BME280;54892;47.488;19.026;2023-05-12T00:45:55;100027.63;;;12.39;83.21
68107;BME280;54892;47.488;19.026;2023-05-12T00:48:59;100031.59;;;12.47;82.89
68107;BME280;54892;47.488;19.026;2023-05-12T00:52:05;100027.09;;;12.42;83.27
68107;BME280;54892;47.488;19.026;2023-05-12T00:55:09;100032.12;;;12.49;83.35
68107;BME280;54892;47.488;19.026;2023-05-12T00:58:13;100023.66;;;12.37;83.81
68107;BME280;54892;47.488;19.026;2023-05-12T01:01:16;100030.53;;;12.48;83.80
68107;BME280;54892;47.488;19.026;2023-05-12T01:04:19;100030.25;;;12.55;83.48
68107;BME280;54892;47.488;19.026;2023-05-12T01:07:25;100029.72;;;12.58;83.15
68107;BME280;54892;47.488;19.026;2023-05-12T01:10:29;100027.31;;;12.61;82.90
68107;BME280;54892;47.488;19.026;2023-05-12T01:13:32;100029.47;;;12.54;84.15
68107;BME280;54892;47.488;19.026;2023-05-12T01:16:39;100029.47;;;12.54;83.83
68107;BME280;54892;47.488;19.026;2023-05-12T01:19:46;100018.59;;;12.61;83.48
68107;BME280;54892;47.488;19.026;2023-05-12T01:22:51;100024.44;;;12.58;82.78
68107;BME280;54892;47.488;19.026;2023-05-12T01:26:02;100029.97;;;12.61;82.56
68107;BME280;54892;47.488;19.026;2023-05-12T01:29:06;100025.50;;;12.57;83.83
68107;BME280;54892;47.488;19.026;2023-05-12T01:32:09;100032.16;;;12.44;83.96
68107;BME280;54892;47.488;19.026;2023-05-12T01:35:13;100030.03;;;12.41;84.13
68107;BME280;54892;47.488;19.026;2023-05-12T01:38:16;100025.25;;;12.38;84.41
68107;BME280;54892;47.488;19.026;2023-05-12T01:41:21;100033.97;;;12.48;84.04
68107;BME280;54892;47.488;19.026;2023-05-12T01:44:24;100045.91;;;12.41;84.71
68107;BME280;54892;47.488;19.026;2023-05-12T01:47:27;100039.53;;;12.37;85.36
68107;BME280;54892;47.488;19.026;2023-05-12T01:50:31;100041.66;;;12.34;85.43
68107;BME280;54892;47.488;19.026;2023-05-12T01:53:34;100043.25;;;12.36;85.58
68107;BME280;54892;47.488;19.026;2023-05-12T01:56:38;100039.53;;;12.31;86.06
68107;BME280;54892;47.488;19.026;2023-05-12T01:59:42;100050.16;;;12.26;86.55
68107;BME280;54892;47.488;19.026;2023-05-12T02:02:45;100049.06;;;12.32;86.58
68107;BME280;54892;47.488;19.026;2023-05-12T02:05:48;100052.50;;;12.28;84.85
68107;BME280;54892;47.488;19.026;2023-05-12T02:08:52;100058.06;;;12.31;85.85
68107;BME280;54892;47.488;19.026;2023-05-12T02:11:57;100057.03;;;12.22;86.26
68107;BME280;54892;47.488;19.026;2023-05-12T02:15:00;100054.91;;;12.09;87.79
68107;BME280;54892;47.488;19.026;2023-05-12T02:18:03;100040.34;;;12.16;88.20
68107;BME280;54892;47.488;19.026;2023-05-12T02:21:07;100055.94;;;12.18;88.51
68107;BME280;54892;47.488;19.026;2023-05-12T02:24:10;100056.47;;;12.20;87.92
68107;BME280;54892;47.488;19.026;2023-05-12T02:27:16;100057.03;;;12.12;87.24
68107;BME280;54892;47.488;19.026;2023-05-12T02:30:19;100054.63;;;12.10;87.74
68107;BME280;54892;47.488;19.026;2023-05-12T02:33:22;100050.37;;;12.09;87.69
68107;BME280;54892;47.488;19.026;2023-05-12T02:36:26;100055.69;;;12.09;88.78
68107;BME280;54892;47.488;19.026;2023-05-12T02:39:29;100054.91;;;12.19;86.85
68107;BME280;54892;47.488;19.026;2023-05-12T02:42:34;100060.97;;;12.09;87.87
68107;BME280;54892;47.488;19.026;2023-05-12T02:45:39;100057.81;;;12.17;87.81
68107;BME280;54892;47.488;19.026;2023-05-12T02:48:42;100057.00;;;12.17;87.55
68107;BME280;54892;47.488;19.026;2023-05-12T02:51:45;100064.69;;;12.03;87.79
68107;BME280;54892;47.488;19.026;2023-05-12T02:54:49;100060.97;;;12.04;88.30
68107;BME280;54892;47.488;19.026;2023-05-12T02:57:54;100059.12;;;12.05;89.35
68107;BME280;54892;47.488;19.026;2023-05-12T03:00:57;100064.41;;;12.05;89.33
68107;BME280;54892;47.488;19.026;2023-05-12T03:04:07;100065.72;;;12.07;89.67
68107;BME280;54892;47.488;19.026;2023-05-12T03:07:10;100070.50;;;12.00;88.53
68107;BME280;54892;47.488;19.026;2023-05-12T03:10:13;100060.19;;;11.98;90.12
68107;BME280;54892;47.488;19.026;2023-05-12T03:13:18;100067.59;;;12.07;90.02
68107;BME280;54892;47.488;19.026;2023-05-12T03:16:21;100064.16;;;12.06;89.88
68107;BME280;54892;47.488;19.026;2023-05-12T03:19:24;100059.62;;;12.01;89.73
68107;BME280;54892;47.488;19.026;2023-05-12T03:22:28;100056.47;;;12.05;89.68
68107;BME280;54892;47.488;19.026;2023-05-12T03:25:32;100059.66;;;12.07;89.82
68107;BME280;54892;47.488;19.026;2023-05-12T03:28:37;100067.06;;;12.10;89.33
68107;BME280;54892;47.488;19.026;2023-05-12T03:31:41;100058.03;;;11.95;90.10
68107;BME280;54892;47.488;19.026;2023-05-12T03:34:44;100063.84;;;11.97;90.74
68107;BME280;54892;47.488;19.026;2023-05-12T03:37:48;100070.75;;;12.03;88.64
68107;BME280;54892;47.488;19.026;2023-05-12T03:41:02;100079.72;;;11.97;89.37
68107;BME280;54892;47.488;19.026;2023-05-12T03:44:06;100071.25;;;11.95;90.24
68107;BME280;54892;47.488;19.026;2023-05-12T03:47:11;100073.63;;;11.97;90.15
68107;BME280;54892;47.488;19.026;2023-05-12T03:50:14;100077.63;;;11.99;90.03
68107;BME280;54892;47.488;19.026;2023-05-12T03:53:18;100075.78;;;12.00;90.36
68107;BME280;54892;47.488;19.026;2023-05-12T03:56:21;100081.03;;;11.95;90.65
68107;BME280;54892;47.488;19.026;2023-05-12T03:59:29;100071.28;;;12.06;90.62
68107;BME280;54892;47.488;19.026;2023-05-12T04:02:32;100073.59;;;11.92;90.56
68107;BME280;54892;47.488;19.026;2023-05-12T04:05:35;100074.94;;;11.89;90.71
68107;BME280;54892;47.488;19.026;2023-05-12T04:08:40;100081.56;;;11.97;90.33
68107;BME280;54892;47.488;19.026;2023-05-12T04:11:43;100083.72;;;12.00;89.59
68107;BME280;54892;47.488;19.026;2023-05-12T04:14:48;100086.84;;;11.97;90.70
68107;BME280;54892;47.488;19.026;2023-05-12T04:17:51;100090.31;;;11.97;89.95
68107;BME280;54892;47.488;19.026;2023-05-12T04:20:55;100094.78;;;11.97;91.10
68107;BME280;54892;47.488;19.026;2023-05-12T04:23:58;100095.63;;;12.08;90.50
68107;BME280;54892;47.488;19.026;2023-05-12T04:27:01;100102.50;;;11.98;90.16
68107;BME280;54892;47.488;19.026;2023-05-12T04:30:08;100099.31;;;12.01;90.17
68107;BME280;54892;47.488;19.026;2023-05-12T04:33:11;100104.56;;;11.91;91.73
68107;BME280;54892;47.488;19.026;2023-05-12T04:36:15;100099.53;;;11.95;91.23
68107;BME280;54892;47.488;19.026;2023-05-12T04:39:18;100100.06;;;11.86;91.84
68107;BME280;54892;47.488;19.026;2023-05-12T04:42:21;100104.59;;;11.96;90.44
68107;BME280;54892;47.488;19.026;2023-05-12T04:45:26;100106.47;;;12.01;90.38
68107;BME280;54892;47.488;19.026;2023-05-12T04:48:29;100091.59;;;11.95;91.12
68107;BME280;54892;47.488;19.026;2023-05-12T04:51:32;100096.12;;;11.94;91.89
68107;BME280;54892;47.488;19.026;2023-05-12T04:54:37;100096.44;;;12.03;91.54
68107;BME280;54892;47.488;19.026;2023-05-12T04:57:41;100100.38;;;12.00;91.31
68107;BME280;54892;47.488;19.026;2023-05-12T05:00:46;100098.81;;;12.05;91.03
68107;BME280;54892;47.488;19.026;2023-05-12T05:03:49;100094.25;;;11.95;90.00
68107;BME280;54892;47.488;19.026;2023-05-12T05:06:53;100103.06;;;12.11;89.66
68107;BME280;54892;47.488;19.026;2023-05-12T05:09:57;100098.78;;;11.99;91.19
68107;BME280;54892;47.488;19.026;2023-05-12T05:13:00;100109.41;;;12.10;90.32
68107;BME280;54892;47.488;19.026;2023-05-12T05:16:05;100106.97;;;11.98;91.48
68107;BME280;54892;47.488;19.026;2023-05-12T05:19:09;100109.38;;;12.05;90.83
68107;BME280;54892;47.488;19.026;2023-05-12T05:22:20;100101.47;;;12.10;90.10
68107;BME280;54892;47.488;19.026;2023-05-12T05:25:23;100107.53;;;12.05;90.40
68107;BME280;54892;47.488;19.026;2023-05-12T05:28:27;100106.19;;;11.97;91.99
68107;BME280;54892;47.488;19.026;2023-05-12T05:31:33;100112.81;;;12.00;91.79
68107;BME280;54892;47.488;19.026;2023-05-12T05:34:36;100107.53;;;12.05;92.11
68107;BME280;54892;47.488;19.026;2023-05-12T05:37:40;100109.38;;;11.99;92.12
68107;BME280;54892;47.488;19.026;2023-05-12T05:40:44;100108.31;;;12.00;91.80
68107;BME280;54892;47.488;19.026;2023-05-12T05:43:53;100109.88;;;11.96;92.26
68107;BME280;54892;47.488;19.026;2023-05-12T05:47:00;100112.03;;;12.10;91.28
68107;BME280;54892;47.488;19.026;2023-05-12T05:50:05;100122.06;;;11.97;90.38
68107;BME280;54892;47.488;19.026;2023-05-12T05:53:10;100122.09;;;12.08;89.76
68107;BME280;54892;47.488;19.026;2023-05-12T05:56:13;100123.16;;;12.07;90.24
68107;BME280;54892;47.488;19.026;2023-05-12T05:59:16;100125.25;;;12.05;90.16
68107;BME280;54892;47.488;19.026;2023-05-12T06:02:21;100130.03;;;12.08;89.13
68107;BME280;54892;47.488;19.026;2023-05-12T06:05:25;100126.88;;;12.11;88.68
68107;BME280;54892;47.488;19.026;2023-05-12T06:08:28;100127.38;;;12.02;90.40
68107;BME280;54892;47.488;19.026;2023-05-12T06:11:32;100134.53;;;12.12;90.11
68107;BME280;54892;47.488;19.026;2023-05-12T06:14:35;100127.91;;;12.05;90.75
68107;BME280;54892;47.488;19.026;2023-05-12T06:17:40;100134.56;;;12.17;90.76
68107;BME280;54892;47.488;19.026;2023-05-12T06:20:46;100137.44;;;12.06;90.21
68107;BME280;54892;47.488;19.026;2023-05-12T06:23:49;100133.72;;;12.01;89.81
68107;BME280;54892;47.488;19.026;2023-05-12T06:26:56;100128.72;;;12.05;90.77
68107;BME280;54892;47.488;19.026;2023-05-12T06:29:59;100138.00;;;12.13;90.59
68107;BME280;54892;47.488;19.026;2023-05-12T06:33:03;100131.63;;;12.09;90.80
68107;BME280;54892;47.488;19.026;2023-05-12T06:36:07;100129.50;;;12.11;88.78
68107;BME280;54892;47.488;19.026;2023-05-12T06:39:11;100132.37;;;11.99;89.74
68107;BME280;54892;47.488;19.026;2023-05-12T06:42:14;100130.22;;;11.96;91.49
68107;BME280;54892;47.488;19.026;2023-05-12T06:45:18;100135.03;;;12.09;92.32
68107;BME280;54892;47.488;19.026;2023-05-12T06:48:23;100132.69;;;12.13;93.01
68107;BME280;54892;47.488;19.026;2023-05-12T06:51:26;100139.56;;;12.14;92.12
68107;BME280;54892;47.488;19.026;2023-05-12T06:54:30;100134.00;;;12.15;91.57
68107;BME280;54892;47.488;19.026;2023-05-12T06:57:34;100131.63;;;12.19;91.36
68107;BME280;54892;47.488;19.026;2023-05-12T07:00:37;100135.34;;;12.33;92.91
68107;BME280;54892;47.488;19.026;2023-05-12T07:03:42;100130.84;;;12.39;92.02
68107;BME280;54892;47.488;19.026;2023-05-12T07:06:46;100143.31;;;12.44;92.53
68107;BME280;54892;47.488;19.026;2023-05-12T07:09:49;100136.69;;;12.41;91.66
68107;BME280;54892;47.488;19.026;2023-05-12T07:12:53;100127.16;;;12.45;91.75
68107;BME280;54892;47.488;19.026;2023-05-12T07:15:56;100134.31;;;12.50;92.44
68107;BME280;54892;47.488;19.026;2023-05-12T07:19:02;100127.16;;;12.56;92.20
68107;BME280;54892;47.488;19.026;2023-05-12T07:22:07;100136.41;;;12.63;92.50
68107;BME280;54892;47.488;19.026;2023-05-12T07:25:10;100131.13;;;12.69;92.25
68107;BME280;54892;47.488;19.026;2023-05-12T07:28:15;100133.50;;;12.70;92.23
68107;BME280;54892;47.488;19.026;2023-05-12T07:31:19;100137.78;;;12.66;91.20
68107;BME280;54892;47.488;19.026;2023-05-12T07:34:24;100128.50;;;12.69;90.28
68107;BME280;54892;47.488;19.026;2023-05-12T07:37:28;100128.22;;;12.70;91.15
68107;BME280;54892;47.488;19.026;2023-05-12T07:40:31;100131.69;;;12.76;91.74
68107;BME280;54892;47.488;19.026;2023-05-12T07:43:35;100133.25;;;12.77;91.11
68107;BME280;54892;47.488;19.026;2023-05-12T07:46:38;100129.53;;;12.78;91.43
68107;BME280;54892;47.488;19.026;2023-05-12T07:49:43;100127.69;;;12.84;89.87
68107;BME280;54892;47.488;19.026;2023-05-12T07:52:47;100137.22;;;12.95;87.93
68107;BME280;54892;47.488;19.026;2023-05-12T07:55:51;100138.53;;;12.82;88.55
68107;BME280;54892;47.488;19.026;2023-05-12T07:58:54;100142.53;;;12.79;89.07
68107;BME280;54892;47.488;19.026;2023-05-12T08:01:58;100134.06;;;12.83;87.81
68107;BME280;54892;47.488;19.026;2023-05-12T08:05:03;100139.59;;;12.81;89.72
68107;BME280;54892;47.488;19.026;2023-05-12T08:08:06;100139.59;;;12.91;88.58
68107;BME280;54892;47.488;19.026;2023-05-12T08:11:16;100141.19;;;12.87;88.33
68107;BME280;54892;47.488;19.026;2023-05-12T08:14:20;100136.16;;;12.96;89.43
68107;BME280;54892;47.488;19.026;2023-05-12T08:17:26;100145.66;;;13.02;87.89
68107;BME280;54892;47.488;19.026;2023-05-12T08:20:31;100148.03;;;13.09;85.70
68107;BME280;54892;47.488;19.026;2023-05-12T08:23:34;100144.88;;;13.02;86.71
68107;BME280;54892;47.488;19.026;2023-05-12T08:26:40;100145.41;;;12.99;88.36
68107;BME280;54892;47.488;19.026;2023-05-12T08:29:43;100141.69;;;13.10;88.99
68107;BME280;54892;47.488;19.026;2023-05-12T08:32:47;100141.16;;;13.13;88.83
68107;BME280;54892;47.488;19.026;2023-05-12T08:35:52;100148.28;;;13.18;86.32
68107;BME280;54892;47.488;19.026;2023-05-12T08:38:56;100147.19;;;13.34;84.37
68107;BME280;54892;47.488;19.026;2023-05-12T08:42:06;100150.94;;;13.28;84.60
68107;BME280;54892;47.488;19.026;2023-05-12T08:45:17;100147.47;;;13.28;84.70
68107;BME280;54892;47.488;19.026;2023-05-12T08:48:20;100151.19;;;13.27;82.33
68107;BME280;54892;47.488;19.026;2023-05-12T08:51:27;100154.12;;;13.25;83.55
68107;BME280;54892;47.488;19.026;2023-05-12T08:54:31;100155.94;;;13.30;81.83
68107;BME280;54892;47.488;19.026;2023-05-12T08:57:36;100160.19;;;13.41;81.15
68107;BME280;54892;47.488;19.026;2023-05-12T09:00:40;100157.78;;;13.34;81.44
68107;BME280;54892;47.488;19.026;2023-05-12T09:03:44;100162.84;;;13.31;81.97
68107;BME280;54892;47.488;19.026;2023-05-12T09:06:49;100158.34;;;13.16;83.01
68107;BME280;54892;47.488;19.026;2023-05-12T09:09:56;100165.78;;;13.24;84.13
68107;BME280;54892;47.488;19.026;2023-05-12T09:13:02;100167.16;;;13.06;85.86
68107;BME280;54892;47.488;19.026;2023-05-12T09:16:10;100166.59;;;13.09;84.23
68107;BME280;54892;47.488;19.026;2023-05-12T09:19:18;100171.63;;;13.00;85.85
68107;BME280;54892;47.488;19.026;2023-05-12T09:22:28;100174.56;;;12.93;85.38
68107;BME280;54892;47.488;19.026;2023-05-12T09:25:31;100174.56;;;12.73;87.17
68107;BME280;54892;47.488;19.026;2023-05-12T09:28:36;100173.78;;;12.62;88.52
68107;BME280;54892;47.488;19.026;2023-05-12T09:31:48;100186.75;;;12.53;88.99
68107;BME280;54892;47.488;19.026;2023-05-12T09:34:53;100191.22;;;12.37;91.28
68107;BME280;54892;47.488;19.026;2023-05-12T09:38:04;100197.56;;;12.36;91.75
68107;BME280;54892;47.488;19.026;2023-05-12T09:41:09;100209.47;;;12.39;90.93
68107;BME280;54892;47.488;19.026;2023-05-12T09:44:14;100211.03;;;12.14;89.44
68107;BME280;54892;47.488;19.026;2023-05-12T09:47:18;100217.47;;;11.85;91.23
68107;BME280;54892;47.488;19.026;2023-05-12T09:50:22;100212.44;;;11.84;90.63
68107;BME280;54892;47.488;19.026;2023-05-12T09:53:27;100211.41;;;11.90;91.47
68107;BME280;54892;47.488;19.026;2023-05-12T09:56:31;100220.63;;;11.82;92.24
68107;BME280;54892;47.488;19.026;2023-05-12T09:59:35;100224.09;;;11.83;93.44
68107;BME280;54892;47.488;19.026;2023-05-12T10:02:40;100214.56;;;11.82;93.87
68107;BME280;54892;47.488;19.026;2023-05-12T10:05:47;100218.81;;;11.83;95.02
68107;BME280;54892;47.488;19.026;2023-05-12T10:08:59;100221.56;;;12.09;94.47
68107;BME280;54892;47.488;19.026;2023-05-12T10:12:07;100211.44;;;11.95;94.63
68107;BME280;54892;47.488;19.026;2023-05-12T10:15:15;100223.41;;;12.03;94.30
68107;BME280;54892;47.488;19.026;2023-05-12T10:18:20;100221.47;;;11.93;95.26
68107;BME280;54892;47.488;19.026;2023-05-12T10:21:24;100219.94;;;12.02;95.66
68107;BME280;54892;47.488;19.026;2023-05-12T10:24:29;100223.47;;;12.18;95.79
68107;BME280;54892;47.488;19.026;2023-05-12T10:27:32;100217.34;;;12.18;96.97
68107;BME280;54892;47.488;19.026;2023-05-12T10:30:37;100214.97;;;12.16;94.67
68107;BME280;54892;47.488;19.026;2023-05-12T10:33:40;100206.25;;;12.21;95.55
68107;BME280;54892;47.488;19.026;2023-05-12T10:36:46;100213.63;;;12.09;95.55
68107;BME280;54892;47.488;19.026;2023-05-12T10:39:51;100216.53;;;12.02;95.07
68107;BME280;54892;47.488;19.026;2023-05-12T10:42:57;100212.50;;;11.94;94.83
68107;BME280;54892;47.488;19.026;2023-05-12T10:46:08;100214.34;;;11.88;95.91
68107;BME280;54892;47.488;19.026;2023-05-12T10:49:11;100211.44;;;11.95;95.23
68107;BME280;54892;47.488;19.026;2023-05-12T10:52:18;100216.72;;;11.95;95.50
68107;BME280;54892;47.488;19.026;2023-05-12T10:55:31;100217.31;;;12.02;94.95
68107;BME280;54892;47.488;19.026;2023-05-12T10:58:35;100218.41;;;12.17;93.12
68107;BME280;54892;47.488;19.026;2023-05-12T11:01:38;100221.84;;;12.12;92.61
68107;BME280;54892;47.488;19.026;2023-05-12T11:04:50;100218.41;;;12.17;92.97
68107;BME280;54892;47.488;19.026;2023-05-12T11:07:54;100229.81;;;12.17;93.10
68107;BME280;54892;47.488;19.026;2023-05-12T11:10:59;100228.75;;;12.18;91.98
68107;BME280;54892;47.488;19.026;2023-05-12T11:14:02;100228.47;;;12.10;91.84
68107;BME280;54892;47.488;19.026;2023-05-12T11:17:06;100232.94;;;12.04;92.14
68107;BME280;54892;47.488;19.026;2023-05-12T11:20:20;100228.97;;;12.07;92.55
68107;BME280;54892;47.488;19.026;2023-05-12T11:23:24;100233.72;;;12.05;92.42
68107;BME280;54892;47.488;19.026;2023-05-12T11:26:31;100230.59;;;12.13;92.37
68107;BME280;54892;47.488;19.026;2023-05-12T11:29:35;100227.66;;;12.04;92.23
68107;BME280;54892;47.488;19.026;2023-05-12T11:32:40;100221.03;;;12.07;94.22
68107;BME280;54892;47.488;19.026;2023-05-12T11:35:44;100227.41;;;12.11;94.01
68107;BME280;54892;47.488;19.026;2023-05-12T11:38:49;100233.50;;;12.16;93.78
68107;BME280;54892;47.488;19.026;2023-05-12T11:41:54;100217.63;;;12.16;93.50
68107;BME280;54892;47.488;19.026;2023-05-12T11:45:03;100226.41;;;12.27;93.58
68107;BME280;54892;47.488;19.026;2023-05-12T11:48:08;100217.91;;;12.30;94.13
68107;BME280;54892;47.488;19.026;2023-05-12T11:51:13;100229.03;;;12.32;91.84
68107;BME280;54892;47.488;19.026;2023-05-12T11:54:17;100219.25;;;12.33;90.95
68107;BME280;54892;47.488;19.026;2023-05-12T11:57:26;100218.97;;;12.24;91.28
68107;BME280;54892;47.488;19.026;2023-05-12T12:00:32;100225.31;;;12.23;91.76
68107;BME280;54892;47.488;19.026;2023-05-12T12:03:44;100225.84;;;12.20;93.48
68107;BME280;54892;47.488;19.026;2023-05-12T12:06:48;100222.41;;;12.20;91.92
68107;BME280;54892;47.488;19.026;2023-05-12T12:09:51;100225.59;;;12.27;92.76
68107;BME280;54892;47.488;19.026;2023-05-12T12:12:58;100235.09;;;12.23;90.53
68107;BME280;54892;47.488;19.026;2023-05-12T12:16:02;100227.94;;;12.18;91.15
68107;BME280;54892;47.488;19.026;2023-05-12T12:19:06;100227.94;;;12.18;91.83
68107;BME280;54892;47.488;19.026;2023-05-12T12:22:09;100234.81;;;12.19;92.74
68107;BME280;54892;47.488;19.026;2023-05-12T12:25:12;100235.34;;;12.16;93.52
68107;BME280;54892;47.488;19.026;2023-05-12T12:28:16;100232.97;;;12.14;93.17
68107;BME280;54892;47.488;19.026;2023-05-12T12:31:20;100232.19;;;12.14;92.66
68107;BME280;54892;47.488;19.026;2023-05-12T12:34:24;100247.53;;;12.17;94.18
68107;BME280;54892;47.488;19.026;2023-05-12T12:37:27;100240.37;;;12.12;94.61
68107;BME280;54892;47.488;19.026;2023-05-12T12:40:31;100243.03;;;12.23;93.58
68107;BME280;54892;47.488;19.026;2023-05-12T12:43:36;100248.09;;;12.24;90.90
68107;BME280;54892;47.488;19.026;2023-05-12T12:46:39;100248.34;;;12.17;93.55
68107;BME280;54892;47.488;19.026;2023-05-12T12:49:43;100248.50;;;12.00;93.93
68107;BME280;54892;47.488;19.026;2023-05-12T12:52:47;100238.94;;;11.94;94.59
68107;BME280;54892;47.488;19.026;2023-05-12T12:55:50;100240.06;;;12.03;94.12
68107;BME280;54892;47.488;19.026;2023-05-12T12:58:55;100241.06;;;11.92;93.36
68107;BME280;54892;47.488;19.026;2023-05-12T13:01:58;100223.06;;;11.94;95.16
68107;BME280;54892;47.488;19.026;2023-05-12T13:05:02;100243.75;;;12.02;94.13
68107;BME280;54892;47.488;19.026;2023-05-12T13:08:08;100245.72;;;11.75;95.20
68107;BME280;54892;47.488;19.026;2023-05-12T13:11:11;100248.69;;;11.83;96.27
68107;BME280;54892;47.488;19.026;2023-05-12T13:14:16;100233.59;;;11.84;95.27
68107;BME280;54892;47.488;19.026;2023-05-12T13:17:19;100234.41;;;11.84;96.08
68107;BME280;54892;47.488;19.026;2023-05-12T13:20:23;100233.09;;;11.87;96.84
68107;BME280;54892;47.488;19.026;2023-05-12T13:23:26;100230.75;;;11.96;97.27
68107;BME280;54892;47.488;19.026;2023-05-12T13:26:30;100236.34;;;11.99;97.18
68107;BME280;54892;47.488;19.026;2023-05-12T13:29:35;100239.81;;;12.05;97.30
68107;BME280;54892;47.488;19.026;2023-05-12T13:32:39;100243.78;;;12.08;96.36
68107;BME280;54892;47.488;19.026;2023-05-12T13:35:43;100247.50;;;12.07;96.06
68107;BME280;54892;47.488;19.026;2023-05-12T13:38:47;100248.81;;;12.04;97.30
68107;BME280;54892;47.488;19.026;2023-05-12T13:41:50;100243.19;;;11.95;96.53
68107;BME280;54892;47.488;19.026;2023-05-12T13:44:56;100236.28;;;11.89;96.73
68107;BME280;54892;47.488;19.026;2023-05-12T13:47:59;100245.03;;;11.90;95.38
68107;BME280;54892;47.488;19.026;2023-05-12T13:51:03;100245.75;;;11.85;95.34
68107;BME280;54892;47.488;19.026;2023-05-12T13:54:07;100253.19;;;11.83;96.85
68107;BME280;54892;47.488;19.026;2023-05-12T13:57:10;100242.62;;;11.88;93.96
68107;BME280;54892;47.488;19.026;2023-05-12T14:00:16;100241.53;;;11.79;96.04
68107;BME280;54892;47.488;19.026;2023-05-12T14:03:20;100244.44;;;11.82;95.21
68107;BME280;54892;47.488;19.026;2023-05-12T14:06:24;100253.69;;;11.80;96.13
68107;BME280;54892;47.488;19.026;2023-05-12T14:09:28;100248.94;;;11.87;94.77
68107;BME280;54892;47.488;19.026;2023-05-12T14:12:32;100250.59;;;11.93;95.40
68107;BME280;54892;47.488;19.026;2023-05-12T14:15:36;100256.66;;;11.94;95.21
68107;BME280;54892;47.488;19.026;2023-05-12T14:18:48;100250.37;;;12.00;95.14
68107;BME280;54892;47.488;19.026;2023-05-12T14:21:52;100259.06;;;11.95;95.20
68107;BME280;54892;47.488;19.026;2023-05-12T14:24:56;100238.97;;;11.99;95.05
68107;BME280;54892;47.488;19.026;2023-05-12T14:28:01;100253.81;;;12.00;94.95
68107;BME280;54892;47.488;19.026;2023-05-12T14:31:05;100260.87;;;11.90;96.92
68107;BME280;54892;47.488;19.026;2023-05-12T14:34:08;100265.38;;;11.89;98.04
68107;BME280;54892;47.488;19.026;2023-05-12T14:37:13;100267.00;;;11.95;97.43
68107;BME280;54892;47.488;19.026;2023-05-12T14:40:16;100270.87;;;11.82;98.91
68107;BME280;54892;47.488;19.026;2023-05-12T14:43:20;100269.00;;;11.78;98.30
68107;BME280;54892;47.488;19.026;2023-05-12T14:46:25;100275.91;;;11.84;96.95
68107;BME280;54892;47.488;19.026;2023-05-12T14:49:28;100281.19;;;11.84;94.51
68107;BME280;54892;47.488;19.026;2023-05-12T14:52:32;100288.53;;;11.71;96.56
68107;BME280;54892;47.488;19.026;2023-05-12T14:55:39;100288.81;;;11.70;96.05
68107;BME280;54892;47.488;19.026;2023-05-12T14:58:43;100297.50;;;11.65;97.36
68107;BME280;54892;47.488;19.026;2023-05-12T15:01:47;100294.87;;;11.65;96.79
68107;BME280;54892;47.488;19.026;2023-05-12T15:04:51;100299.13;;;11.71;97.17
68107;BME280;54892;47.488;19.026;2023-05-12T15:07:54;100300.72;;;11.72;95.47
68107;BME280;54892;47.488;19.026;2023-05-12T15:10:58;100292.28;;;11.76;95.23
68107;BME280;54892;47.488;19.026;2023-05-12T15:14:01;100295.91;;;11.69;96.39
68107;BME280;54892;47.488;19.026;2023-05-12T15:17:06;100294.63;;;11.72;97.03
68107;BME280;54892;47.488;19.026;2023-05-12T15:20:10;100305.97;;;11.67;97.02
68107;BME280;54892;47.488;19.026;2023-05-12T15:23:14;100301.81;;;11.77;95.83
68107;BME280;54892;47.488;19.026;2023-05-12T15:26:17;100303.12;;;11.74;96.26
68107;BME280;54892;47.488;19.026;2023-05-12T15:29:36;100310.28;;;11.79;96.60
68107;BME280;54892;47.488;19.026;2023-05-12T15:32:40;100307.03;;;11.71;95.08
68107;BME280;54892;47.488;19.026;2023-05-12T15:35:44;100305.13;;;11.62;96.08
68107;BME280;54892;47.488;19.026;2023-05-12T15:38:47;100313.88;;;11.62;96.95
68107;BME280;54892;47.488;19.026;2023-05-12T15:41:51;100305.41;;;11.60;96.58
68107;BME280;54892;47.488;19.026;2023-05-12T15:44:54;100300.44;;;11.69;96.85
68107;BME280;54892;47.488;19.026;2023-05-12T15:47:59;100307.00;;;11.61;97.23
68107;BME280;54892;47.488;19.026;2023-05-12T15:51:03;100305.44;;;11.65;97.40
68107;BME280;54892;47.488;19.026;2023-05-12T15:54:06;100305.41;;;11.60;98.38